createdAt,value
2022-09-27T00:01:17.005Z,8.70
2022-09-27T00:03:44.092Z,8.73
2022-09-27T00:06:13.951Z,8.74
2022-09-27T00:08:41.259Z,8.68
2022-09-27T00:11:15.136Z,8.72
2022-09-27T00:13:41.612Z,8.71
2022-09-27T00:16:10.851Z,8.66
2022-09-27T00:18:37.735Z,8.67
2022-09-27T00:21:06.637Z,8.64
2022-09-27T00:23:34.357Z,8.69
2022-09-27T00:26:01.650Z,8.69
2022-09-27T00:28:28.628Z,8.66
2022-09-27T00:30:55.484Z,8.59
2022-09-27T00:33:23.767Z,8.52
2022-09-27T00:35:50.494Z,8.59
2022-09-27T00:38:17.254Z,8.54
2022-09-27T00:40:44.497Z,8.55
2022-09-27T00:43:17.320Z,8.54
2022-09-27T00:45:48.361Z,8.50
2022-09-27T00:48:18.636Z,8.47
2022-09-27T00:50:50.945Z,8.49
2022-09-27T00:53:22.777Z,8.47
2022-09-27T00:55:53.092Z,8.49
2022-09-27T00:58:23.714Z,8.47
2022-09-27T01:00:53.936Z,8.46
2022-09-27T01:03:26.440Z,8.44
2022-09-27T01:05:55.433Z,8.42
2022-09-27T01:08:22.121Z,8.47
2022-09-27T01:11:10.546Z,8.44
2022-09-27T01:13:44.018Z,8.50
2022-09-27T01:16:18.864Z,8.48
2022-09-27T01:19:02.001Z,8.47
2022-09-27T01:21:40.915Z,8.42
2022-09-27T01:24:37.261Z,8.43
2022-09-27T01:27:42.740Z,8.41
2022-09-27T01:30:27.165Z,8.37
2022-09-27T01:33:10.564Z,8.34
2022-09-27T01:35:52.795Z,8.37
2022-09-27T01:38:29.071Z,8.34
2022-09-27T01:41:04.288Z,8.33
2022-09-27T01:43:37.933Z,8.35
2022-09-27T01:46:11.327Z,-147.88
2022-09-27T01:48:43.842Z,8.33
2022-09-27T01:51:15.867Z,8.33
2022-09-27T01:53:46.725Z,8.33
2022-09-27T01:56:18.668Z,8.31
2022-09-27T01:58:50.365Z,8.29
2022-09-27T02:01:21.368Z,8.24
2022-09-27T02:03:50.860Z,8.30
2022-09-27T02:06:21.091Z,8.29
2022-09-27T02:08:53.263Z,8.26
2022-09-27T02:11:20.047Z,8.25
2022-09-27T02:13:53.666Z,8.25
2022-09-27T02:16:28.879Z,8.21
2022-09-27T02:19:08.047Z,8.21
2022-09-27T02:21:42.529Z,8.19
2022-09-27T02:24:14.427Z,8.17
2022-09-27T02:26:45.423Z,8.18
2022-09-27T02:29:18.415Z,8.19
2022-09-27T02:31:46.657Z,8.18
2022-09-27T02:34:18.765Z,8.16
2022-09-27T02:36:45.522Z,8.12
2022-09-27T02:39:12.270Z,8.13
2022-09-27T02:41:39.043Z,-147.88
2022-09-27T02:44:10.075Z,-147.88
2022-09-27T02:46:53.937Z,-147.88
2022-09-27T02:49:35.797Z,8.01
2022-09-27T02:52:15.838Z,7.99
2022-09-27T02:54:52.421Z,8.00
2022-09-27T02:57:30.467Z,7.92
2022-09-27T03:00:07.331Z,7.94
2022-09-27T03:02:41.359Z,7.87
2022-09-27T03:05:12.185Z,7.87
2022-09-27T03:07:39.844Z,7.78
2022-09-27T03:10:07.885Z,7.74
2022-09-27T03:12:35.059Z,7.68
2022-09-27T03:15:02.149Z,7.65
2022-09-27T03:17:29.027Z,7.62
2022-09-27T03:19:57.101Z,7.62
2022-09-27T03:22:23.863Z,7.62
2022-09-27T03:24:50.624Z,7.64
2022-09-27T03:27:17.386Z,7.57
2022-09-27T03:29:44.070Z,7.57
2022-09-27T03:32:10.919Z,7.59
2022-09-27T03:34:37.870Z,7.57
2022-09-27T03:37:05.965Z,7.60
2022-09-27T03:39:33.224Z,7.59
2022-09-27T03:42:00.165Z,7.52
2022-09-27T03:44:26.974Z,7.50
2022-09-27T03:46:53.781Z,7.49
2022-09-27T03:49:20.519Z,7.43
2022-09-27T03:51:47.271Z,7.42
2022-09-27T03:54:15.725Z,7.40
2022-09-27T03:56:42.433Z,7.39
2022-09-27T03:59:09.194Z,7.45
2022-09-27T04:01:37.659Z,7.44
2022-09-27T04:04:08.833Z,7.40
2022-09-27T04:06:37.774Z,7.41
2022-09-27T04:09:04.724Z,7.37
2022-09-27T04:11:32.841Z,7.37
2022-09-27T04:13:59.725Z,7.31
2022-09-27T04:16:27.583Z,7.33
2022-09-27T04:18:54.418Z,7.32
2022-09-27T04:21:22.586Z,7.36
2022-09-27T04:23:49.389Z,7.31
2022-09-27T04:26:16.344Z,7.31
2022-09-27T04:28:44.879Z,7.32
2022-09-27T04:31:11.667Z,7.35
2022-09-27T04:33:38.806Z,7.31
2022-09-27T04:36:24.864Z,7.28
2022-09-27T04:38:51.554Z,7.29
2022-09-27T04:41:18.350Z,7.21
2022-09-27T04:43:46.456Z,7.22
2022-09-27T04:46:13.946Z,7.21
2022-09-27T04:48:41.175Z,7.25
2022-09-27T04:51:23.210Z,7.26
2022-09-27T04:53:49.920Z,7.25
2022-09-27T04:56:16.689Z,7.20
2022-09-27T04:58:43.438Z,7.20
2022-09-27T05:01:11.501Z,7.15
2022-09-27T05:03:39.013Z,7.16
2022-09-27T05:06:06.220Z,7.21
2022-09-27T05:08:32.977Z,7.15
2022-09-27T05:10:59.760Z,7.16
2022-09-27T05:13:26.421Z,7.17
2022-09-27T05:15:53.094Z,7.16
2022-09-27T05:18:21.358Z,7.17
2022-09-27T05:20:48.101Z,7.18
2022-09-27T05:23:15.471Z,7.20
2022-09-27T05:25:43.116Z,7.17
2022-09-27T05:28:09.985Z,7.17
2022-09-27T05:30:36.903Z,7.19
2022-09-27T05:33:03.965Z,7.18
2022-09-27T05:35:33.939Z,7.20
2022-09-27T05:38:00.961Z,7.18
2022-09-27T05:40:40.835Z,7.15
2022-09-27T05:43:08.558Z,7.16
2022-09-27T05:45:35.305Z,7.22
2022-09-27T05:48:02.710Z,7.14
2022-09-27T05:50:29.596Z,7.18
2022-09-27T05:52:57.935Z,7.12
2022-09-27T05:55:24.940Z,7.18
2022-09-27T05:57:57.395Z,7.16
2022-09-27T06:00:25.770Z,7.16
2022-09-27T06:02:56.628Z,7.17
2022-09-27T06:05:27.634Z,7.17
2022-09-27T06:08:00.784Z,7.21
2022-09-27T06:10:28.455Z,7.20
2022-09-27T06:12:59.977Z,7.16
2022-09-27T06:15:26.803Z,7.17
2022-09-27T06:17:54.250Z,7.20
2022-09-27T06:20:21.478Z,7.15
2022-09-27T06:22:48.269Z,7.24
2022-09-27T06:25:16.731Z,7.22
2022-09-27T06:27:45.127Z,7.17
2022-09-27T06:30:14.835Z,7.19
2022-09-27T06:32:44.990Z,7.20
2022-09-27T06:35:11.788Z,7.23
2022-09-27T06:37:38.492Z,7.25
2022-09-27T06:40:09.065Z,7.28
2022-09-27T06:42:38.356Z,7.26
2022-09-27T06:45:06.439Z,7.23
2022-09-27T06:47:35.856Z,7.25
2022-09-27T06:50:05.863Z,7.25
2022-09-27T06:52:32.718Z,7.31
2022-09-27T06:54:59.505Z,7.27
2022-09-27T06:57:45.486Z,7.26
2022-09-27T07:00:29.900Z,7.25
2022-09-27T07:03:01.138Z,7.23
2022-09-27T07:05:29.744Z,7.24
2022-09-27T07:07:57.846Z,7.29
2022-09-27T07:10:26.479Z,7.29
2022-09-27T07:12:53.455Z,7.35
2022-09-27T07:15:22.786Z,7.34
2022-09-27T07:17:56.924Z,7.36
2022-09-27T07:20:24.591Z,7.38
2022-09-27T07:22:51.421Z,7.38
2022-09-27T07:25:27.161Z,7.41
2022-09-27T07:27:54.052Z,7.39
2022-09-27T07:30:23.425Z,7.41
2022-09-27T07:32:50.559Z,7.44
2022-09-27T07:35:17.401Z,7.44
2022-09-27T07:37:44.992Z,7.46
2022-09-27T07:40:11.903Z,7.50
2022-09-27T07:42:39.127Z,-147.88
2022-09-27T07:45:09.267Z,-147.88
2022-09-27T07:47:38.209Z,-147.88
2022-09-27T07:50:05.529Z,-147.88
2022-09-27T07:52:40.320Z,-147.88
2022-09-27T07:55:08.010Z,-147.88
2022-09-27T07:57:35.060Z,-147.88
2022-09-27T08:00:02.795Z,7.50
2022-09-27T08:02:33.230Z,7.67
2022-09-27T08:05:01.981Z,7.71
2022-09-27T08:07:29.996Z,7.79
2022-09-27T08:09:56.774Z,7.82
2022-09-27T08:12:23.893Z,7.81
2022-09-27T08:14:51.326Z,7.87
2022-09-27T08:17:19.406Z,7.92
2022-09-27T08:19:50.067Z,7.94
2022-09-27T08:22:21.526Z,7.88
2022-09-27T08:24:49.211Z,7.98
2022-09-27T08:27:17.936Z,8.14
2022-09-27T08:29:44.932Z,8.04
2022-09-27T08:32:12.576Z,8.00
2022-09-27T08:34:39.976Z,8.44
2022-09-27T08:37:07.361Z,8.43
2022-09-27T08:39:36.097Z,8.20
2022-09-27T08:42:13.124Z,8.14
2022-09-27T08:44:48.604Z,8.08
2022-09-27T08:47:18.309Z,8.01
2022-09-27T08:49:50.096Z,7.93
2022-09-27T08:52:21.819Z,7.89
2022-09-27T08:54:52.007Z,8.02
2022-09-27T08:57:19.703Z,8.13
2022-09-27T08:59:54.908Z,8.21
2022-09-27T09:02:27.351Z,8.17
2022-09-27T09:04:57.788Z,-147.88
2022-09-27T09:07:42.584Z,-147.88
2022-09-27T09:10:48.208Z,8.58
2022-09-27T09:13:26.622Z,-147.88
2022-09-27T09:16:00.056Z,-147.88
2022-09-27T09:18:41.300Z,-147.88
2022-09-27T09:21:18.131Z,8.93
2022-09-27T09:24:04.672Z,9.32
2022-09-27T09:26:42.816Z,9.21
2022-09-27T09:29:30.471Z,-147.88
2022-09-27T09:32:08.155Z,-147.88
2022-09-27T09:34:40.909Z,-147.88
2022-09-27T09:37:13.328Z,-147.88
2022-09-27T09:39:45.580Z,-147.88
2022-09-27T09:42:19.953Z,-147.88
2022-09-27T09:44:54.247Z,-147.88
2022-09-27T09:47:31.664Z,8.99
2022-09-27T09:50:01.737Z,9.27
2022-09-27T09:52:42.373Z,9.58
2022-09-27T09:55:19.583Z,9.66
2022-09-27T09:57:57.974Z,9.81
2022-09-27T10:00:24.694Z,9.99
2022-09-27T10:02:54.350Z,10.13
2022-09-27T14:11:58.248Z,11.25
2022-09-27T14:14:29.280Z,10.96
2022-09-27T14:17:00.089Z,10.90
2022-09-27T14:19:29.591Z,11.02
2022-09-27T14:21:58.120Z,11.21
2022-09-27T14:24:28.969Z,11.27
2022-09-27T14:27:19.066Z,11.34
2022-09-27T14:29:49.045Z,11.22
2022-09-27T14:32:18.414Z,11.42
2022-09-27T14:34:46.095Z,11.42
2022-09-27T14:37:26.714Z,-147.88
2022-09-27T14:39:56.274Z,-147.88
2022-09-27T14:42:27.249Z,-147.88
2022-09-27T14:44:58.632Z,-147.88
2022-09-27T14:47:28.845Z,-147.88
2022-09-27T14:49:57.834Z,-147.88
2022-09-27T14:52:30.177Z,-147.88
2022-09-27T14:55:02.655Z,-147.88
2022-09-27T14:57:34.135Z,-147.88
2022-09-27T15:00:09.780Z,-147.88
2022-09-27T15:02:38.165Z,-147.88
2022-09-27T15:05:12.487Z,-147.88
2022-09-27T15:07:39.725Z,10.37
2022-09-27T15:10:12.442Z,10.45
2022-09-27T15:12:41.027Z,10.56
2022-09-27T15:15:14.412Z,-147.88
2022-09-27T15:17:43.736Z,-147.88
2022-09-27T15:20:34.675Z,-147.88
2022-09-27T15:23:04.614Z,-147.88
2022-09-27T15:25:37.505Z,-147.88
2022-09-27T15:28:14.783Z,-147.88
2022-09-27T15:30:45.391Z,-147.88
2022-09-27T15:33:21.666Z,-147.88
2022-09-27T15:35:50.874Z,-147.88
2022-09-27T15:38:27.438Z,-147.88
2022-09-27T15:41:00.480Z,-147.88
2022-09-27T15:43:30.902Z,-147.88
2022-09-27T15:46:02.007Z,-147.88
2022-09-27T15:48:31.713Z,-147.88
2022-09-27T15:50:58.962Z,-147.88
2022-09-27T15:53:42.600Z,10.08
2022-09-27T15:56:13.546Z,-147.88
2022-09-27T15:58:43.778Z,-147.88
2022-09-27T16:01:19.758Z,-147.88
2022-09-27T16:03:46.839Z,-147.88
2022-09-27T16:06:14.943Z,-147.88
2022-09-27T16:08:43.861Z,-147.88
2022-09-27T16:11:14.309Z,-147.88
2022-09-27T16:13:42.593Z,-147.88
2022-09-27T16:16:16.269Z,-147.88
2022-09-27T16:18:44.316Z,-147.88
2022-09-27T16:21:11.329Z,-147.88
2022-09-27T16:23:38.468Z,-147.88
2022-09-27T16:26:06.115Z,10.08
2022-09-27T16:28:33.238Z,-147.88
2022-09-27T16:31:07.111Z,-147.88
2022-09-27T16:33:35.649Z,-147.88
2022-09-27T16:36:08.396Z,-147.88
2022-09-27T16:38:35.414Z,-147.88
2022-09-27T16:41:03.403Z,-147.88
2022-09-27T16:43:31.918Z,7.61
2022-09-27T16:46:09.129Z,7.57
2022-09-27T16:48:36.432Z,7.48
2022-09-27T16:51:23.859Z,7.48
2022-09-27T16:53:50.768Z,7.35
2022-09-27T16:56:18.072Z,7.33
2022-09-27T16:58:45.065Z,7.29
2022-09-27T17:01:16.425Z,7.21
2022-09-27T17:03:44.462Z,7.20
2022-09-27T17:06:12.626Z,7.28
2022-09-27T17:08:39.591Z,-147.88
2022-09-27T17:11:06.555Z,-147.88
2022-09-27T17:13:34.041Z,-147.88
2022-09-27T17:16:05.157Z,-147.88
2022-09-27T17:18:33.589Z,-147.88
2022-09-27T17:21:01.797Z,-147.88
2022-09-27T17:23:28.808Z,7.30
2022-09-27T17:25:56.484Z,7.40
2022-09-27T17:28:23.472Z,7.48
2022-09-27T17:30:53.157Z,7.40
2022-09-27T17:33:21.820Z,7.38
2022-09-27T17:36:00.292Z,7.36
2022-09-27T17:38:26.957Z,7.29
2022-09-27T17:41:00.310Z,7.26
2022-09-27T17:43:27.112Z,7.21
2022-09-27T17:45:53.957Z,7.16
2022-09-27T17:48:39.777Z,7.14
2022-09-27T17:51:12.286Z,7.13
2022-09-27T17:53:39.035Z,7.16
2022-09-27T17:56:06.450Z,7.07
2022-09-27T17:58:33.425Z,7.06
2022-09-27T18:01:03.228Z,7.00
2022-09-27T18:03:30.293Z,6.92
2022-09-27T18:05:58.107Z,6.95
2022-09-27T18:08:30.417Z,6.97
2022-09-27T18:10:57.634Z,6.94
2022-09-27T18:13:24.406Z,6.96
2022-09-27T18:16:01.856Z,7.01
2022-09-27T18:18:28.813Z,7.05
2022-09-27T18:21:01.306Z,7.05
2022-09-27T18:26:15.216Z,7.05
2022-09-27T18:28:42.597Z,7.05
2022-09-27T18:31:12.852Z,6.99
2022-09-27T18:33:40.300Z,7.04
2022-09-27T18:36:09.935Z,7.09
2022-09-27T18:38:38.022Z,7.10
2022-09-27T18:41:07.176Z,7.13
2022-09-27T18:43:38.721Z,7.12
2022-09-27T18:46:33.858Z,7.11
2022-09-27T18:48:54.871Z,7.02
2022-09-27T18:51:26.053Z,7.02
2022-09-27T18:53:56.677Z,7.02
2022-09-27T18:56:24.837Z,7.01
2022-09-27T18:58:52.244Z,6.98
2022-09-27T19:01:20.639Z,6.99
2022-09-27T19:03:48.314Z,6.98
2022-09-27T19:06:21.026Z,6.97
2022-09-27T19:08:48.221Z,6.93
2022-09-27T19:11:19.644Z,6.91
2022-09-27T19:13:51.740Z,6.96
2022-09-27T19:16:21.469Z,6.96
2022-09-27T19:18:49.036Z,6.99
2022-09-27T19:21:18.743Z,6.96
2022-09-27T19:23:45.970Z,6.93
2022-09-27T19:26:19.053Z,6.89
2022-09-27T19:28:49.188Z,6.90
2022-09-27T19:31:18.084Z,6.87
2022-09-27T19:33:45.377Z,6.85
2022-09-27T19:36:14.791Z,6.89
2022-09-27T19:38:41.861Z,6.84
2022-09-27T19:41:11.239Z,6.86
2022-09-27T19:43:40.098Z,6.84
2022-09-27T19:46:09.124Z,6.82
2022-09-27T19:48:36.980Z,6.84
2022-09-27T19:51:04.595Z,6.82
2022-09-27T19:53:33.122Z,6.78
2022-09-27T19:56:00.949Z,6.74
2022-09-27T19:58:29.489Z,6.76
2022-09-27T20:01:06.780Z,6.75
2022-09-27T20:03:35.008Z,6.67
2022-09-27T20:06:03.532Z,6.70
2022-09-27T20:08:31.661Z,6.69
2022-09-27T20:11:05.873Z,6.63
2022-09-27T20:13:34.566Z,6.62
2022-09-27T20:16:05.076Z,6.63
2022-09-27T20:18:32.847Z,6.56
2022-09-27T20:21:01.987Z,6.52
2022-09-27T20:23:30.203Z,6.50
2022-09-27T20:26:01.346Z,6.51
2022-09-27T20:28:30.539Z,6.49
2022-09-27T20:31:05.973Z,6.50
2022-09-27T20:33:43.323Z,6.51
2022-09-27T20:36:12.783Z,6.50
2022-09-27T20:38:40.456Z,6.50
2022-09-27T20:41:07.989Z,6.53
2022-09-27T20:43:35.701Z,6.55
2022-09-27T20:46:05.625Z,6.59
2022-09-27T20:48:32.743Z,6.64
2022-09-27T20:51:04.388Z,6.66
2022-09-27T20:53:32.766Z,6.66
2022-09-27T20:56:04.496Z,6.61
2022-09-27T20:58:32.910Z,6.61
2022-09-27T21:01:07.220Z,6.66
2022-09-27T21:03:34.769Z,6.71
2022-09-27T21:06:02.244Z,6.76
2022-09-27T21:08:30.855Z,6.79
2022-09-27T21:11:06.217Z,6.87
2022-09-27T21:13:34.593Z,6.94
2022-09-27T21:16:02.788Z,6.98
2022-09-27T21:18:31.104Z,6.95
2022-09-27T21:20:58.857Z,7.04
2022-09-27T21:23:26.057Z,7.01
2022-09-27T21:26:01.559Z,6.99
2022-09-27T21:28:32.764Z,7.04
2022-09-27T21:31:02.555Z,7.04
2022-09-27T21:33:30.988Z,6.99
2022-09-27T21:35:58.967Z,7.02
2022-09-27T21:38:26.214Z,6.99
2022-09-27T21:40:58.896Z,6.98
2022-09-27T21:43:27.643Z,6.98
2022-09-27T21:45:54.551Z,7.01
2022-09-27T21:48:21.205Z,6.95
2022-09-27T21:50:50.274Z,6.97
2022-09-27T21:53:17.684Z,6.96
2022-09-27T21:55:54.547Z,6.88
2022-09-27T21:58:21.342Z,6.85
2022-09-27T22:00:48.155Z,6.78
2022-09-27T22:03:14.958Z,6.77
2022-09-27T22:05:44.429Z,6.76
2022-09-27T22:08:12.493Z,6.77
2022-09-27T22:10:39.403Z,6.95
2022-09-27T22:13:06.270Z,6.93
2022-09-27T22:15:34.781Z,6.92
2022-09-27T22:18:01.627Z,6.94
2022-09-27T22:20:28.520Z,6.91
2022-09-27T22:22:56.303Z,6.90
2022-09-27T22:25:24.402Z,6.91
2022-09-27T22:27:51.083Z,6.93
2022-09-27T22:30:18.050Z,6.91
2022-09-27T22:32:45.402Z,6.91
2022-09-27T22:35:12.136Z,6.89
2022-09-27T22:37:39.278Z,6.90
2022-09-27T22:40:07.116Z,7.12
2022-09-27T22:42:35.220Z,7.14
2022-09-27T22:45:02.695Z,6.98
2022-09-27T22:47:29.358Z,6.84
2022-09-27T22:49:58.578Z,6.88
2022-09-27T22:52:25.997Z,6.75
2022-09-27T22:54:52.592Z,6.69
2022-09-27T22:57:19.525Z,6.64
2022-09-27T22:59:47.516Z,6.59
2022-09-27T23:02:14.178Z,6.56
2022-09-27T23:04:40.751Z,6.57
2022-09-27T23:07:07.433Z,6.54
2022-09-27T23:09:34.448Z,6.54
2022-09-27T23:12:01.330Z,6.53
2022-09-27T23:14:29.523Z,6.53
2022-09-27T23:16:58.640Z,6.56
2022-09-27T23:19:26.548Z,6.55
2022-09-27T23:21:53.324Z,6.56
2022-09-27T23:24:20.042Z,6.55
2022-09-27T23:27:06.782Z,6.60
2022-09-27T23:29:33.380Z,6.59
2022-09-27T23:32:02.024Z,6.60
2022-09-27T23:34:29.054Z,6.62
2022-09-27T23:36:55.879Z,6.56
2022-09-27T23:39:22.558Z,6.61
2022-09-27T23:41:49.329Z,6.55
2022-09-27T23:44:16.000Z,6.53
2022-09-27T23:46:42.850Z,6.55
2022-09-27T23:49:10.879Z,6.55
2022-09-27T23:51:37.510Z,6.52
2022-09-27T23:54:04.424Z,6.50
2022-09-27T23:56:31.068Z,6.53
2022-09-27T23:58:57.964Z,6.51
